Time;durP1;ratioP1;P1;durP2;ratioP2;P2;SDS_P1;SDS_P2;PMS_P1;PMS_P2;Temp;Humidity;BMP_temperature;BMP_pressure;BME280_temperature;BME280_humidity;BME280_pressure;Samples;Min_cycle;Max_cycle;Signal;HPM_P1;HPM_P2
2023/10/12 00:02:58;;;;;;;0.70;0.68;;;;;;;13.55;90.11;99897.53;5093394;28;20048;-72
2023/10/12 00:05:29;;;;;;;0.57;0.57;;;;;;;13.54;90.01;99901.78;5093491;28;20044;-71
2023/10/12 00:08:00;;;;;;;1.27;1.17;;;;;;;13.51;90.70;99890.72;5093485;28;20098;-71
2023/10/12 00:10:42;;;;;;;1.02;0.95;;;;;;;13.52;90.32;99888.13;5093857;28;20132;-71
2023/10/12 00:13:14;;;;;;;1.20;0.88;;;;;;;13.54;90.24;99880.41;5093452;28;20044;-72
2023/10/12 00:15:46;;;;;;;1.25;1.15;;;;;;;13.54;90.49;99886.41;5093342;28;20123;-72
2023/10/12 00:18:16;;;;;;;0.90;0.82;;;;;;;13.54;90.57;99875.28;5093493;28;20048;-71
2023/10/12 00:20:51;;;;;;;3.35;2.15;;;;;;;13.54;90.26;99870.16;5093678;28;20121;-71
2023/10/12 00:23:20;;;;;;;1.05;0.95;;;;;;;13.49;90.32;99866.78;5093355;28;20048;-71
2023/10/12 00:25:56;;;;;;;1.48;1.02;;;;;;;13.51;90.37;99862.53;5093306;28;20052;-72
2023/10/12 00:28:38;;;;;;;0.80;0.80;;;;;;;13.50;90.69;99858.25;5093310;28;20040;-71
2023/10/12 00:31:16;;;;;;;1.73;1.60;;;;;;;13.50;90.56;99855.69;5093904;28;20114;-71
2023/10/12 00:33:48;;;;;;;1.13;0.63;;;;;;;13.42;90.24;99850.63;5093208;28;20127;-71
2023/10/12 00:36:21;;;;;;;3.05;1.75;;;;;;;13.46;90.90;99847.16;5093170;28;20048;-72
2023/10/12 00:38:52;;;;;;;1.23;1.13;;;;;;;13.42;90.19;99843.78;5093548;28;20123;-71
2023/10/12 00:41:25;;;;;;;1.30;0.95;;;;;;;13.35;90.41;99839.59;5093437;28;20047;-72
2023/10/12 00:44:02;;;;;;;2.17;1.60;;;;;;;13.36;90.63;99836.13;5094303;28;20124;-71
2023/10/12 00:46:40;;;;;;;0.88;0.88;;;;;;;13.28;90.60;99837.94;5093500;28;20052;-71
2023/10/12 00:49:19;;;;;;;0.45;0.45;;;;;;;13.34;90.10;99837.03;5093132;28;20055;-71
2023/10/12 00:51:51;;;;;;;1.50;0.88;;;;;;;13.31;90.19;99832.78;5094091;28;20509;-71
2023/10/12 00:54:41;;;;;;;1.30;1.20;;;;;;;13.26;89.85;99829.41;5095495;28;20040;-71
2023/10/12 00:57:11;;;;;;;0.70;0.70;;;;;;;13.21;90.22;99820.91;5096999;28;20051;-71
2023/10/12 00:59:43;;;;;;;4.43;2.58;;;;;;;13.19;90.20;99822.66;5096728;28;20076;-71
2023/10/12 01:02:15;;;;;;;0.93;0.93;;;;;;;13.23;90.08;99808.94;5095717;28;20044;-71
2023/10/12 01:04:48;;;;;;;0.80;0.80;;;;;;;13.21;90.22;99804.69;5095734;28;20097;-71
2023/10/12 01:07:25;;;;;;;1.10;0.88;;;;;;;13.20;89.84;99803.84;5112246;28;20051;-71
2023/10/12 01:10:03;;;;;;;3.75;1.15;;;;;;;13.13;89.89;99807.31;5096455;28;20052;-72
2023/10/12 01:12:34;;;;;;;0.43;0.43;;;;;;;13.10;90.10;99802.22;5095590;28;20048;-71
2023/10/12 01:15:08;;;;;;;1.25;1.02;;;;;;;13.08;90.39;99803.94;5095603;28;20101;-71
2023/10/12 01:17:39;;;;;;;14.57;1.70;;;;;;;13.08;90.32;99803.94;5095679;28;20040;-71
2023/10/12 01:20:16;;;;;;;0.68;0.68;;;;;;;13.05;90.23;99803.94;5096379;28;20102;-70
2023/10/12 01:22:48;;;;;;;0.88;0.88;;;;;;;13.01;90.76;99814.22;5096602;28;20167;-71
2023/10/12 01:25:21;;;;;;;2.08;1.20;;;;;;;13.05;90.94;99814.19;5096291;28;20048;-71
2023/10/12 01:27:52;;;;;;;4.93;0.77;;;;;;;13.05;90.73;99814.19;5096444;28;20087;-71
2023/10/12 01:30:22;;;;;;;1.65;1.55;;;;;;;13.02;90.42;99824.47;5095000;28;20150;-71
2023/10/12 01:32:53;;;;;;;1.40;1.30;;;;;;;13.00;90.81;99821.09;5096108;28;20367;-71
2023/10/12 01:35:32;;;;;;;6.55;1.35;;;;;;;13.03;90.57;99821.03;5094827;28;20036;-70
2023/10/12 01:38:05;;;;;;;4.30;2.67;;;;;;;12.96;90.25;99819.38;5095005;28;20043;-71
2023/10/12 01:40:44;;;;;;;1.17;1.05;;;;;;;12.89;90.45;99822.00;5096511;28;20312;-71
2023/10/12 01:43:14;;;;;;;0.80;0.80;;;;;;;12.87;90.66;99827.16;5095900;28;20537;-71
2023/10/12 01:45:45;;;;;;;1.58;1.45;;;;;;;12.86;90.31;99822.88;5096301;28;20090;-71
2023/10/12 01:48:16;;;;;;;0.93;0.93;;;;;;;12.84;90.64;99824.59;5095613;28;20061;-71
2023/10/12 01:50:47;;;;;;;1.02;0.95;;;;;;;12.77;90.37;99828.06;5096119;28;20067;-71
2023/10/12 01:55:56;;;;;;;1.35;1.17;;;;;;;12.76;90.06;99832.34;5094683;28;20043;-71
2023/10/12 01:58:27;;;;;;;0.82;0.82;;;;;;;12.74;90.38;99843.50;5094404;28;20051;-71
2023/10/12 02:01:05;;;;;;;9.18;0.93;;;;;;;12.77;90.50;99834.06;5094478;28;20066;-71
2023/10/12 02:03:42;;;;;;;1.38;1.23;;;;;;;12.74;90.21;99833.25;5095234;28;20039;-71
2023/10/12 02:06:16;;;;;;;0.90;0.90;;;;;;;12.68;90.09;99838.38;5095446;28;20055;-71
2023/10/12 02:08:52;;;;;;;1.92;1.60;;;;;;;12.66;90.46;99846.09;5095411;28;20119;-71
2023/10/12 02:11:36;;;;;;;0.50;0.50;;;;;;;12.67;90.72;99844.34;5095399;28;20075;-71
2023/10/12 02:14:10;;;;;;;1.08;0.93;;;;;;;12.62;90.23;99843.56;5095296;28;20043;-71
2023/10/12 02:16:39;;;;;;;1.88;1.27;;;;;;;12.65;90.25;99848.66;5094569;28;20043;-70
2023/10/12 02:19:08;;;;;;;0.60;0.60;;;;;;;12.61;90.37;99844.41;5093877;28;20036;-71
2023/10/12 02:21:40;;;;;;;0.60;0.60;;;;;;;12.58;90.60;99847.84;5095586;28;20490;-71
2023/10/12 02:24:14;;;;;;;0.80;0.70;;;;;;;12.60;90.57;99847.81;5095470;28;20322;-70
2023/10/12 02:26:52;;;;;;;1.65;1.15;;;;;;;12.63;90.19;99840.13;5095534;28;20407;-72
2023/10/12 02:29:21;;;;;;;1.48;1.35;;;;;;;12.63;90.41;99838.44;5110966;28;20142;-70
2023/10/12 02:31:58;;;;;;;0.57;0.57;;;;;;;12.67;90.14;99836.69;5094544;28;20083;-71
2023/10/12 02:34:29;;;;;;;0.73;0.73;;;;;;;12.56;89.89;99833.34;5094831;28;20072;-71
2023/10/12 02:37:16;;;;;;;0.68;0.55;;;;;;;12.44;89.54;99833.41;5095125;28;20109;-71
2023/10/12 02:39:48;;;;;;;1.95;1.15;;;;;;;12.41;89.50;99823.19;5094961;28;20474;-71
2023/10/12 02:42:18;;;;;;;1.25;1.15;;;;;;;12.45;89.68;99837.69;5093408;28;20520;-70
2023/10/12 02:47:30;;;;;;;2.58;1.88;;;;;;;12.32;89.08;99844.59;5094643;28;20048;-70
2023/10/12 02:50:15;;;;;;;4.00;2.33;;;;;;;12.31;89.18;99842.03;5094551;28;20036;-70
2023/10/12 02:52:44;;;;;;;0.88;0.88;;;;;;;12.35;88.85;99846.28;5093241;28;20056;-71
2023/10/12 02:55:24;;;;;;;15.45;1.60;;;;;;;12.30;89.12;99841.19;5094365;28;20044;-71
2023/10/12 02:57:59;;;;;;;1.13;1.02;;;;;;;12.28;89.03;99831.81;5093567;28;20097;-71
2023/10/12 03:00:35;;;;;;;1.63;1.52;;;;;;;12.22;88.99;99831.81;5094663;28;20047;-70
2023/10/12 03:03:22;;;;;;;0.82;0.82;;;;;;;12.08;88.75;99822.53;5093172;28;20054;-71
2023/10/12 03:05:58;;;;;;;1.30;1.17;;;;;;;12.10;88.78;99817.38;5093390;28;20052;-71
2023/10/12 03:08:33;;;;;;;0.52;0.52;;;;;;;12.14;88.79;99825.91;5094267;28;20075;-70
2023/10/12 03:11:12;;;;;;;1.40;1.30;;;;;;;12.06;88.75;99826.81;5093432;28;20123;-71
2023/10/12 03:13:54;;;;;;;0.45;0.45;;;;;;;12.10;88.77;99828.47;5092981;28;20397;-71
2023/10/12 03:16:24;;;;;;;1.27;1.17;;;;;;;12.15;88.19;99820.78;5093589;28;20032;-70
2023/10/12 03:18:58;;;;;;;2.30;1.17;;;;;;;12.12;88.71;99832.75;5094442;28;20097;-70
2023/10/12 03:21:33;;;;;;;1.92;1.65;;;;;;;12.16;88.94;99831.88;5093569;28;20486;-70
2023/10/12 03:24:05;;;;;;;1.48;0.90;;;;;;;12.21;88.63;99825.88;5094494;28;20416;-71
2023/10/12 03:26:36;;;;;;;1.95;1.73;;;;;;;12.14;88.90;99823.34;5093960;28;20040;-71
2023/10/12 03:29:18;;;;;;;1.52;1.42;;;;;;;12.09;88.84;99826.75;5093039;28;20043;-71
2023/10/12 03:31:56;;;;;;;0.70;0.70;;;;;;;12.15;89.15;99825.91;5092827;28;20375;-70
2023/10/12 03:34:38;;;;;;;0.73;0.70;;;;;;;12.17;89.14;99828.44;5093950;28;20036;-71
2023/10/12 03:37:14;;;;;;;0.88;0.80;;;;;;;12.15;89.06;99835.28;5094316;28;20104;-71
2023/10/12 03:39:58;;;;;;;2.35;1.55;;;;;;;12.07;89.15;99825.94;5093830;28;20052;-71
2023/10/12 03:45:23;;;;;;;2.78;1.42;;;;;;;12.04;89.58;99832.78;5093958;28;20504;-71
2023/10/12 03:50:37;;;;;;;1.42;1.20;;;;;;;12.09;89.98;99837.00;5093679;28;20051;-70
2023/10/12 03:53:07;;;;;;;1.30;0.88;;;;;;;12.12;90.05;99835.31;5093665;28;20044;-70
2023/10/12 03:55:42;;;;;;;4.53;1.90;;;;;;;12.17;90.28;99839.53;5093526;28;20040;-70
2023/10/12 03:58:15;;;;;;;2.92;1.75;;;;;;;12.14;90.33;99838.72;5093767;28;20052;-70
2023/10/12 04:00:48;;;;;;;1.27;1.17;;;;;;;12.17;90.20;99836.97;5094177;28;20048;-70
2023/10/12 04:03:21;;;;;;;1.02;0.90;;;;;;;12.14;90.39;99831.03;5093868;28;20405;-71
2023/10/12 04:05:56;;;;;;;0.88;0.88;;;;;;;12.22;90.71;99831.81;5093601;28;20044;-71
2023/10/12 04:14:09;;;;;;;1.75;1.20;;;;;;;12.24;91.12;99835.25;5093432;28;20050;-71
2023/10/12 04:16:40;;;;;;;6.95;2.35;;;;;;;12.32;91.17;99838.59;5092273;28;20486;-70
2023/10/12 04:19:10;;;;;;;2.15;1.55;;;;;;;12.22;91.01;99842.91;5093635;28;20040;-70
2023/10/12 04:21:39;;;;;;;1.58;1.10;;;;;;;12.28;91.25;99848.03;5093348;28;20044;-70
2023/10/12 04:27:09;;;;;;;1.80;1.50;;;;;;;12.31;91.44;99836.94;5095670;28;20051;-71
2023/10/12 04:29:39;;;;;;;;;;;;;;;12.34;91.71;99830.06;5097929;28;20039;-70
2023/10/12 04:32:15;;;;;;;1.55;1.30;;;;;;;12.21;91.22;99830.16;5097376;28;19920;-71
2023/10/12 04:34:49;;;;;;;1.35;1.02;;;;;;;12.27;92.05;99824.97;5097475;28;20547;-71
2023/10/12 04:37:25;;;;;;;2.35;1.45;;;;;;;12.32;91.79;99824.09;5097309;28;20397;-71
2023/10/12 04:39:57;;;;;;;2.35;1.75;;;;;;;12.26;91.64;99829.25;5097321;28;20083;-70
2023/10/12 04:42:33;;;;;;;3.60;1.67;;;;;;;12.25;91.94;99826.69;5097592;28;20482;-71
2023/10/12 04:45:23;;;;;;;0.88;0.82;;;;;;;12.26;91.71;99818.19;5097029;28;20044;-71
2023/10/12 04:48:07;;;;;;;5.13;2.58;;;;;;;12.14;91.51;99818.25;5096815;28;20036;-70
2023/10/12 04:50:44;;;;;;;3.63;1.23;;;;;;;12.04;91.62;99817.44;5096868;28;20097;-71
2023/10/12 04:53:14;;;;;;;0.85;0.80;;;;;;;12.13;91.73;99821.63;5096687;28;20490;-70
2023/10/12 04:55:47;;;;;;;2.63;2.05;;;;;;;12.08;91.87;99830.19;5097342;28;20056;-70
2023/10/12 04:58:31;;;;;;;2.13;1.33;;;;;;;12.03;91.78;99819.13;5096692;28;20044;-70
2023/10/12 05:01:19;;;;;;;0.88;0.85;;;;;;;11.99;91.40;99817.47;5096683;28;20512;-70
2023/10/12 05:06:34;;;;;;;1.25;1.15;;;;;;;11.97;91.52;99821.69;5097696;28;20362;-71
2023/10/12 05:09:10;;;;;;;17.42;1.38;;;;;;;11.88;90.98;99826.84;5096793;28;20097;-71
2023/10/12 05:11:40;;;;;;;1.13;0.98;;;;;;;11.91;91.21;99824.31;5096975;28;20386;-70
2023/10/12 05:14:15;;;;;;;0.65;0.65;;;;;;;11.92;91.13;99823.47;5096693;28;20048;-71
2023/10/12 05:16:45;;;;;;;1.38;1.27;;;;;;;11.89;90.89;99818.34;5096272;28;20043;-71
2023/10/12 05:19:14;;;;;;;1.40;1.25;;;;;;;11.93;91.28;99814.91;5096337;28;20098;-71
2023/10/12 05:21:44;;;;;;;3.87;1.90;;;;;;;11.92;91.02;99822.59;5096269;28;20460;-71
2023/10/12 05:24:13;;;;;;;0.50;0.50;;;;;;;11.96;91.13;99821.72;5096493;28;20048;-71
2023/10/12 05:26:51;;;;;;;5.40;1.60;;;;;;;12.01;91.08;99823.41;5096467;28;20113;-70
2023/10/12 05:29:34;;;;;;;1.67;1.57;;;;;;;12.08;91.00;99825.09;5096468;28;20273;-70
2023/10/12 05:32:18;;;;;;;1.95;1.45;;;;;;;12.18;90.78;99830.16;5096020;28;20361;-71
2023/10/12 05:34:46;;;;;;;1.08;0.95;;;;;;;12.25;91.23;99831.81;5096333;28;20109;-70
2023/10/12 05:37:24;;;;;;;0.82;0.82;;;;;;;12.29;91.13;99838.63;5095394;28;20044;-70
2023/10/12 05:39:55;;;;;;;7.65;2.75;;;;;;;12.31;91.01;99836.94;5095866;28;20066;-71
2023/10/12 05:42:24;;;;;;;3.13;2.55;;;;;;;12.36;91.08;99830.91;5096445;28;20080;-70
2023/10/12 05:45:06;;;;;;;0.60;0.60;;;;;;;12.49;91.57;99831.69;5095821;28;20071;-70
2023/10/12 05:47:43;;;;;;;2.10;1.83;;;;;;;12.59;91.34;99829.06;5096084;28;20273;-70
2023/10/12 05:50:15;;;;;;;3.50;1.45;;;;;;;12.62;91.22;99833.31;5095728;28;20056;-70
2023/10/12 05:52:44;;;;;;;2.65;2.45;;;;;;;12.70;91.32;99837.53;5096570;28;20363;-71
2023/10/12 05:55:21;;;;;;;5.20;3.45;;;;;;;12.78;91.49;99834.91;5113597;28;20550;-70
2023/10/12 05:57:50;;;;;;;4.03;3.28;;;;;;;12.72;91.24;99850.31;5115883;28;20048;-71
2023/10/12 06:00:35;;;;;;;1.02;0.93;;;;;;;12.78;91.70;99835.78;5113390;28;20069;-71
2023/10/12 06:03:07;;;;;;;3.33;2.92;;;;;;;12.92;91.23;99847.59;5113321;27;20102;-71
2023/10/12 06:05:36;;;;;;;3.78;3.28;;;;;;;12.98;91.41;99838.16;5095619;28;20044;-70
2023/10/12 06:08:05;;;;;;;4.60;3.87;;;;;;;13.16;91.67;99834.63;5095362;28;20493;-71
2023/10/12 06:10:35;;;;;;;1.38;1.25;;;;;;;13.31;91.49;99832.78;5098288;28;20484;-71
2023/10/12 06:13:05;;;;;;;;;;;;;;;13.37;91.14;99842.97;5115957;28;20047;-71
2023/10/12 06:15:39;;;;;;;3.53;2.17;;;;;;;13.51;91.51;99839.44;5115562;27;19976;-71
2023/10/12 06:18:13;;;;;;;1.88;1.73;;;;;;;13.64;91.65;99836.72;5102089;27;20051;-72
2023/10/12 06:20:44;;;;;;;1.65;1.55;;;;;;;13.72;90.93;99834.09;5095095;28;20509;-71
2023/10/12 06:23:16;;;;;;;2.17;1.70;;;;;;;13.75;90.94;99829.75;5095048;28;20043;-71
2023/10/12 06:25:45;;;;;;;6.10;3.22;;;;;;;13.83;90.64;99832.25;5095285;28;20059;-71
2023/10/12 06:28:34;;;;;;;2.35;2.15;;;;;;;13.94;90.95;99823.53;5100865;28;20046;-72
2023/10/12 06:31:07;;;;;;;3.10;1.77;;;;;;;14.01;90.69;99827.72;5111842;28;20047;-73
2023/10/12 06:33:41;;;;;;;1.35;1.25;;;;;;;14.09;90.35;99835.34;5115313;28;20093;-70
2023/10/12 06:36:16;;;;;;;1.83;1.23;;;;;;;14.19;90.90;99841.19;5115458;28;20147;-71
2023/10/12 06:39:02;;;;;;;7.97;2.70;;;;;;;14.27;90.25;99836.84;5113772;28;20059;-71
2023/10/12 06:44:27;;;;;;;2.25;1.65;;;;;;;14.42;90.44;99840.06;5109380;28;20424;-72
2023/10/12 06:46:57;;;;;;;4.93;2.30;;;;;;;14.46;89.83;99846.88;5097644;28;20048;-72
2023/10/12 06:49:29;;;;;;;0.60;0.60;;;;;;;14.62;90.36;99842.34;5093565;28;20055;-71
2023/10/12 06:52:00;;;;;;;3.75;1.52;;;;;;;14.72;89.92;99844.78;5093927;28;20056;-71
2023/10/12 06:54:39;;;;;;;1.10;1.00;;;;;;;14.82;89.95;99844.63;5094337;28;20478;-71
2023/10/12 07:00:13;;;;;;;2.05;1.67;;;;;;;15.03;89.43;99849.44;5094579;28;20401;-72
2023/10/12 07:02:43;;;;;;;1.83;1.30;;;;;;;15.21;89.40;99844.00;5094076;28;20054;-72
2023/10/12 07:05:20;;;;;;;1.92;1.83;;;;;;;15.33;89.29;99856.66;5094618;28;20093;-73
2023/10/12 07:07:51;;;;;;;1.63;1.52;;;;;;;15.38;89.14;99853.13;5103783;28;20036;-72
2023/10/12 07:10:28;;;;;;;1.52;0.95;;;;;;;15.44;88.41;99859.88;5114696;27;20067;-71
2023/10/12 07:13:00;;;;;;;1.83;1.67;;;;;;;15.40;88.32;99850.53;5109356;28;20040;-72
2023/10/12 07:15:40;;;;;;;1.67;1.25;;;;;;;15.41;88.09;99853.06;5110024;28;20056;-72
2023/10/12 07:18:15;;;;;;;1.08;1.02;;;;;;;15.48;88.00;99850.44;5093964;28;20048;-74
2023/10/12 07:20:46;;;;;;;3.70;0.70;;;;;;;15.53;87.67;99836.59;5092997;28;20446;-73
2023/10/12 07:23:28;;;;;;;2.47;1.85;;;;;;;15.62;87.84;99845.88;5102506;28;20050;-73
2023/10/12 07:26:00;;;;;;;1.77;1.05;;;;;;;15.71;87.95;99859.44;5114038;28;20054;-73
2023/10/12 07:28:33;;;;;;;2.88;2.53;;;;;;;15.84;87.71;99868.59;5113799;28;20390;-74
2023/10/12 07:33:51;;;;;;;13.70;10.32;;;;;;;16.14;87.62;99876.59;5093594;28;20050;-73
2023/10/12 07:36:36;;;;;;;5.18;2.75;;;;;;;16.27;87.69;99875.50;5092273;28;20131;-73
2023/10/12 07:39:17;;;;;;;2.30;1.42;;;;;;;16.33;87.43;99877.94;5093546;28;20044;-72
2023/10/12 07:42:00;;;;;;;1.30;1.17;;;;;;;16.31;87.16;99874.53;5094201;28;20130;-72
2023/10/12 07:44:37;;;;;;;1.35;1.00;;;;;;;16.46;86.96;99874.22;5093658;28;20040;-72
2023/10/12 07:47:14;;;;;;;2.05;1.63;;;;;;;16.62;86.93;99875.59;5095286;28;20036;-72
2023/10/12 07:49:48;;;;;;;1.20;1.10;;;;;;;16.72;86.30;99872.78;5093886;28;20051;-73
2023/10/12 07:52:38;;;;;;;1.63;1.42;;;;;;;16.83;85.78;99872.53;5093413;28;20036;-71
2023/10/12 07:55:12;;;;;;;2.80;1.73;;;;;;;16.94;85.10;99862.81;5093626;28;20401;-74
2023/10/12 07:57:41;;;;;;;2.13;1.75;;;;;;;17.12;84.72;99862.41;5093489;28;20052;-71
2023/10/12 08:05:56;;;;;;;1.13;1.07;;;;;;;17.42;83.01;99877.09;5098812;28;20047;-72
2023/10/12 08:13:49;;;;;;;1.75;1.33;;;;;;;17.58;81.66;99871.59;5098046;28;20075;-73
2023/10/12 08:16:26;;;;;;;1.70;1.60;;;;;;;17.65;81.45;99870.53;5096947;28;20048;-74
2023/10/12 08:21:38;;;;;;;2.30;1.95;;;;;;;17.75;80.39;99879.75;5097338;28;20524;-72
2023/10/12 08:24:22;;;;;;;8.57;3.13;;;;;;;17.88;80.16;99875.94;5097674;28;20580;-76
2023/10/12 08:26:57;;;;;;;1.42;1.33;;;;;;;17.97;79.86;99875.69;5110099;28;20126;-69
2023/10/12 08:32:14;;;;;;;1.88;1.50;;;;;;;17.90;79.23;99862.09;5117535;28;20367;-72
2023/10/12 08:35:11;;;;;;;12.07;5.70;;;;;;;17.90;79.31;99866.44;5104760;28;20048;-74
2023/10/12 08:37:38;;;;;;;3.03;2.47;;;;;;;17.86;79.06;99867.38;5096570;28;20119;-75
2023/10/12 08:40:18;;;;;;;5.10;2.40;;;;;;;17.89;79.10;99872.47;5117226;28;20096;-72
2023/10/12 08:42:58;;;;;;;3.58;1.92;;;;;;;17.90;78.94;99876.75;5117334;28;20047;-71
2023/10/12 08:45:28;;;;;;;5.20;1.75;;;;;;;17.93;78.70;99874.91;5113898;28;20048;-73
2023/10/12 08:48:02;;;;;;;2.22;1.95;;;;;;;18.01;78.67;99872.13;5117201;28;20056;-72
2023/10/12 08:53:18;;;;;;;3.85;3.03;;;;;;;18.15;77.56;99859.66;5117213;28;20122;-73
2023/10/12 08:55:53;;;;;;;2.33;1.90;;;;;;;18.32;77.26;99852.28;5116073;28;20043;-71
2023/10/12 08:58:38;;;;;;;1.48;1.33;;;;;;;18.48;76.84;99843.19;5110999;28;20044;-74
2023/10/12 09:01:10;;;;;;;3.45;2.35;;;;;;;18.64;76.45;99839.25;5112194;27;20134;-73
2023/10/12 09:03:44;;;;;;;2.97;1.55;;;;;;;18.84;75.88;99830.88;5097083;28;20052;-73
2023/10/12 09:08:53;;;;;;;0.85;0.80;;;;;;;19.15;74.66;99825.53;5105468;28;20040;-71
2023/10/12 09:11:26;;;;;;;2.50;2.30;;;;;;;19.25;73.94;99822.59;5096344;28;20048;-72
2023/10/12 09:13:58;;;;;;;3.08;1.75;;;;;;;19.25;73.32;99811.41;5095291;28;20101;-73
2023/10/12 09:16:28;;;;;;;1.58;1.33;;;;;;;19.39;73.04;99816.97;5096365;28;20520;-72
2023/10/12 09:18:59;;;;;;;0.80;0.80;;;;;;;19.51;72.64;99819.16;5100818;28;20139;-73
2023/10/12 09:21:38;;;;;;;2.22;1.70;;;;;;;19.61;72.39;99825.72;5095826;28;20072;-71
2023/10/12 09:24:15;;;;;;;4.55;1.42;;;;;;;19.74;72.29;99816.63;5096260;28;20047;-73
2023/10/12 09:26:57;;;;;;;0.82;0.82;;;;;;;19.80;71.62;99810.34;5096473;28;20048;-73
2023/10/12 09:29:28;;;;;;;1.75;1.50;;;;;;;19.81;71.53;99818.09;5095637;28;20132;-72
2023/10/12 09:34:47;;;;;;;2.63;2.28;;;;;;;20.05;70.85;99819.78;5095810;28;20073;-73
2023/10/12 09:37:20;;;;;;;1.92;1.40;;;;;;;20.10;70.75;99818.75;5095978;28;20048;-72
2023/10/12 09:39:49;;;;;;;3.30;1.77;;;;;;;20.15;70.72;99814.25;5095864;28;20127;-73
2023/10/12 09:42:30;;;;;;;2.13;1.50;;;;;;;20.28;70.24;99815.50;5094429;28;20520;-71
2023/10/12 09:45:06;;;;;;;3.72;2.15;;;;;;;20.33;70.08;99816.16;5096931;28;20559;-72
2023/10/12 09:47:57;;;;;;;1.13;0.85;;;;;;;20.45;70.10;99813.09;5095733;28;20048;-74
2023/10/12 09:50:32;;;;;;;1.65;1.38;;;;;;;20.54;69.82;99804.97;5095931;28;20069;-73
2023/10/12 09:56:02;;;;;;;1.45;1.35;;;;;;;20.90;68.96;99806.09;5102446;28;20127;-71
2023/10/12 09:58:43;;;;;;;2.38;1.90;;;;;;;21.01;68.33;99803.91;5116269;28;20088;-72
2023/10/12 10:04:27;;;;;;;2.38;1.90;;;;;;;20.77;68.75;99791.94;5114422;27;20059;-72
2023/10/12 10:06:52;;;;;;;3.55;1.42;;;;;;;20.73;68.90;99796.41;5103899;28;20048;-71
2023/10/12 10:09:37;;;;;;;1.60;1.20;;;;;;;20.76;69.21;99790.25;5107225;28;20535;-72
2023/10/12 10:12:08;;;;;;;1.60;1.33;;;;;;;20.71;68.78;99786.97;5095488;28;20048;-72
2023/10/12 10:14:44;;;;;;;1.75;1.50;;;;;;;20.67;69.10;99785.41;5096205;28;20051;-72
2023/10/12 10:17:15;;;;;;;1.52;1.42;;;;;;;20.73;69.29;99783.41;5102416;28;20036;-72
2023/10/12 10:19:51;;;;;;;10.45;1.88;;;;;;;20.78;69.39;99782.41;5095735;28;20046;-72
2023/10/12 10:22:23;;;;;;;2.05;1.48;;;;;;;20.90;69.06;99777.53;5100930;28;20443;-72
2023/10/12 10:24:55;;;;;;;1.30;1.10;;;;;;;21.04;68.83;99780.41;5104566;28;20048;-73
2023/10/12 10:27:34;;;;;;;4.40;2.22;;;;;;;21.21;68.46;99772.78;5094910;28;20040;-70
2023/10/12 10:30:25;;;;;;;2.33;1.77;;;;;;;21.28;68.23;99766.41;5095142;28;20066;-72
2023/10/12 10:33:12;;;;;;;1.48;1.38;;;;;;;21.33;68.00;99759.28;5094581;28;20048;-71
2023/10/12 10:36:10;;;;;;;1.60;1.17;;;;;;;21.43;67.35;99764.09;5109490;28;20044;-71
2023/10/12 10:38:53;;;;;;;1.05;1.00;;;;;;;21.45;67.01;99754.47;5114242;28;20500;-72
2023/10/12 10:41:38;;;;;;;1.15;1.00;;;;;;;21.51;66.83;99754.19;5113172;28;20481;-72
2023/10/12 10:44:13;;;;;;;16.23;9.02;;;;;;;21.69;66.64;99758.59;5105908;28;20123;-72
2023/10/12 10:46:45;;;;;;;2.55;2.35;;;;;;;21.82;65.78;99750.16;5100366;28;20442;-72
2023/10/12 10:49:19;;;;;;;1.40;1.30;;;;;;;21.86;65.94;99743.94;5094227;28;20043;-72
2023/10/12 10:52:02;;;;;;;1.38;1.27;;;;;;;21.95;65.80;99755.69;5094795;28;20494;-72
2023/10/12 10:54:33;;;;;;;2.45;1.65;;;;;;;22.11;65.38;99748.88;5098659;28;20039;-71
2023/10/12 10:57:14;;;;;;;1.48;1.38;;;;;;;22.31;64.93;99748.78;5114810;28;20051;-71
2023/10/12 10:59:45;;;;;;;2.08;1.83;;;;;;;22.38;64.71;99744.97;5115179;28;20481;-72
2023/10/12 11:02:18;;;;;;;1.30;1.20;;;;;;;22.39;64.48;99744.03;5097075;28;20082;-74
2023/10/12 11:04:51;;;;;;;1.42;1.23;;;;;;;22.35;64.33;99734.72;5113512;28;20405;-71
2023/10/12 11:07:20;;;;;;;1.60;1.17;;;;;;;22.41;64.36;99731.78;5114887;28;20427;-71
2023/10/12 11:10:05;;;;;;;3.75;1.90;;;;;;;22.45;62.92;99730.75;5114461;28;20104;-72
2023/10/12 11:12:36;;;;;;;2.65;1.85;;;;;;;22.47;62.75;99728.91;5114772;28;20122;-71
2023/10/12 11:15:10;;;;;;;3.45;1.48;;;;;;;22.47;62.07;99718.50;5100779;28;20068;-71
2023/10/12 11:17:55;;;;;;;5.78;1.95;;;;;;;22.47;61.79;99710.69;5094310;28;20047;-71
2023/10/12 11:20:38;;;;;;;2.35;1.65;;;;;;;22.57;61.85;99714.53;5094441;28;20474;-71
2023/10/12 11:23:09;;;;;;;2.28;1.45;;;;;;;22.67;61.58;99715.78;5093748;28;20047;-71
2023/10/12 11:25:41;;;;;;;3.17;1.73;;;;;;;22.74;61.29;99705.09;5102194;28;20154;-71
2023/10/12 11:28:20;;;;;;;2.42;2.13;;;;;;;22.77;61.03;99710.16;5114458;28;20079;-70
2023/10/12 11:30:51;;;;;;;2.00;1.50;;;;;;;22.81;60.70;99701.25;5114534;28;20044;-70
2023/10/12 11:33:28;;;;;;;1.77;1.67;;;;;;;22.90;60.58;99703.38;5114033;28;20058;-73
2023/10/12 11:36:04;;;;;;;1.42;1.25;;;;;;;22.99;60.66;99705.53;5093569;28;20039;-71
2023/10/12 11:38:34;;;;;;;4.68;1.88;;;;;;;23.00;60.29;99691.59;5093744;28;20482;-71
2023/10/12 11:41:16;;;;;;;1.40;1.23;;;;;;;23.14;60.38;99699.53;5093597;28;20043;-71
2023/10/12 11:43:53;;;;;;;2.55;1.40;;;;;;;23.22;59.46;99687.81;5099763;28;20069;-70
2023/10/12 11:46:23;;;;;;;2.60;1.55;;;;;;;23.22;59.75;99686.97;5114391;28;20106;-71
2023/10/12 11:49:08;;;;;;;1.55;1.45;;;;;;;23.34;59.46;99686.31;5114324;28;20047;-70
2023/10/12 11:51:40;;;;;;;1.95;1.35;;;;;;;23.21;59.64;99685.28;5112787;28;20047;-71
2023/10/12 11:54:19;;;;;;;1.50;1.25;;;;;;;22.91;59.98;99686.88;5113941;28;20044;-70
2023/10/12 11:56:51;;;;;;;2.25;1.90;;;;;;;22.87;60.54;99690.53;5113900;28;20104;-71
2023/10/12 11:59:26;;;;;;;1.38;1.27;;;;;;;23.03;60.36;99686.25;5113906;28;20047;-70
2023/10/12 12:02:09;;;;;;;1.02;0.98;;;;;;;23.18;59.78;99685.41;5111548;28;20044;-71
2023/10/12 12:04:40;;;;;;;1.25;1.15;;;;;;;23.18;59.37;99680.22;5113834;28;20051;-72
2023/10/12 12:07:24;;;;;;;2.42;1.48;;;;;;;23.31;59.00;99681.28;5113812;28;20047;-71
2023/10/12 12:10:01;;;;;;;2.53;1.38;;;;;;;23.36;59.55;99679.31;5113984;28;20048;-70
2023/10/12 12:12:38;;;;;;;1.27;1.17;;;;;;;23.46;59.85;99675.28;5101973;28;20398;-70
2023/10/12 12:15:08;;;;;;;3.22;2.85;;;;;;;23.58;59.50;99687.66;5092846;28;20114;-67
2023/10/12 12:17:37;;;;;;;2.45;1.25;;;;;;;23.55;59.16;99674.78;5104599;28;20035;-71
2023/10/12 12:20:13;;;;;;;2.05;1.38;;;;;;;23.65;58.93;99677.75;5113731;28;20047;-71
2023/10/12 12:22:43;;;;;;;1.10;1.00;;;;;;;23.66;58.63;99671.63;5113540;28;20061;-71
2023/10/12 12:25:18;;;;;;;1.58;1.35;;;;;;;23.78;58.71;99671.78;5113779;28;20120;-70
2023/10/12 12:27:49;;;;;;;5.18;1.38;;;;;;;23.95;58.49;99663.88;5103477;28;20052;-70
2023/10/12 12:30:29;;;;;;;0.60;0.60;;;;;;;23.94;58.12;99650.91;5092716;28;20043;-72
2023/10/12 12:33:19;;;;;;;2.05;1.85;;;;;;;23.87;57.93;99655.59;5093186;28;20453;-73
2023/10/12 12:35:59;;;;;;;1.20;1.10;;;;;;;23.93;57.88;99654.44;5093149;28;20056;-72
2023/10/12 12:38:43;;;;;;;1.25;1.15;;;;;;;23.98;57.39;99661.09;5095560;28;20416;-71
2023/10/12 12:41:25;;;;;;;1.17;1.08;;;;;;;23.95;57.86;99658.66;5093532;28;20063;-71
2023/10/12 12:43:58;;;;;;;1.60;1.45;;;;;;;23.92;58.44;99661.41;5093371;28;20047;-71
2023/10/12 12:46:29;;;;;;;2.00;1.58;;;;;;;23.96;58.03;99660.34;5093675;28;20066;-71
2023/10/12 12:48:59;;;;;;;1.23;1.00;;;;;;;23.96;58.17;99660.34;5096880;28;20048;-71
2023/10/12 12:51:29;;;;;;;1.52;0.90;;;;;;;23.96;58.33;99660.34;5097046;28;20044;-72
2023/10/12 12:54:02;;;;;;;2.70;1.85;;;;;;;23.97;58.54;99662.00;5097390;28;20139;-71
2023/10/12 12:56:31;;;;;;;2.70;1.75;;;;;;;23.97;58.93;99651.56;5097414;28;20051;-71
2023/10/12 12:59:00;;;;;;;1.48;1.38;;;;;;;23.95;58.64;99656.03;5096001;28;20051;-71
2023/10/12 13:01:30;;;;;;;2.08;1.88;;;;;;;24.01;58.17;99657.47;5096942;28;20040;-71
2023/10/12 13:04:01;;;;;;;1.42;1.33;;;;;;;24.08;57.60;99647.56;5096920;28;20131;-71
2023/10/12 13:06:33;;;;;;;6.00;2.08;;;;;;;24.07;57.20;99648.50;5096940;28;20472;-73
2023/10/12 13:09:02;;;;;;;3.40;1.67;;;;;;;24.06;57.47;99644.16;5096917;28;20040;-72
2023/10/12 13:11:32;;;;;;;2.60;1.63;;;;;;;24.10;57.84;99650.91;5096477;28;20040;-72
2023/10/12 13:14:01;;;;;;;1.38;1.15;;;;;;;24.19;58.03;99646.03;5096983;28;20071;-71